Myronivka, Ukraine
Current Conditions -  °F | °C
As of 5:30 AM on Monday 24 Nov 2014 (Local Time) from UKBB Reporting Station
Overcast Overcast  
Wind Chill: 15°   Ceiling: 500
Heat Index: 25°   Visibility: 4mi
Dew Point: 23°   Wind: 9mph
Humidity: 93%   Direction: 110°ESE
Pressure: 30.5"   Gusts: NA
Location:  49.65°N, 30.98°E
Report Text: UKBB 240230Z 11004MPS 6000 OVC005 M04/M05 Q1033 86820540 36850536 NOSIG
Loading
Personal Weather Stations






























Interactive Weather Map New forecast layout! Learn more

10-Day Weather Forecast

Advertisements
Track Severe Weather on mobile